sensor_id;sensor_type;location;lat;lon;timestamp;temperature;humidity
22940;DHT22;11636;52.086;5.090;2023-12-20T00:02:12;6.00;99.90
22940;DHT22;11636;52.086;5.090;2023-12-20T00:04:39;6.10;99.90
22940;DHT22;11636;52.086;5.090;2023-12-20T00:07:12;6.10;99.90
22940;DHT22;11636;52.086;5.090;2023-12-20T00:09:39;6.10;99.90
22940;DHT22;11636;52.086;5.090;2023-12-20T00:12:13;6.10;99.90
22940;DHT22;11636;52.086;5.090;2023-12-20T00:14:40;6.00;99.90
22940;DHT22;11636;52.086;5.090;2023-12-20T00:17:13;6.00;99.90
22940;DHT22;11636;52.086;5.090;2023-12-20T00:19:40;6.00;99.90
22940;DHT22;11636;52.086;5.090;2023-12-20T00:22:13;5.90;99.90
22940;DHT22;11636;52.086;5.090;2023-12-20T00:24:40;5.90;99.90
22940;DHT22;11636;52.086;5.090;2023-12-20T00:27:13;5.90;99.90
22940;DHT22;11636;52.086;5.090;2023-12-20T00:29:40;5.90;99.90
22940;DHT22;11636;52.086;5.090;2023-12-20T00:32:16;5.90;99.90
22940;DHT22;11636;52.086;5.090;2023-12-20T00:34:43;5.90;99.90
22940;DHT22;11636;52.086;5.090;2023-12-20T00:37:17;5.90;99.90
22940;DHT22;11636;52.086;5.090;2023-12-20T00:39:44;5.90;99.90
22940;DHT22;11636;52.086;5.090;2023-12-20T00:42:17;6.00;99.90
22940;DHT22;11636;52.086;5.090;2023-12-20T00:44:44;6.10;99.90
22940;DHT22;11636;52.086;5.090;2023-12-20T00:47:17;6.10;99.90
22940;DHT22;11636;52.086;5.090;2023-12-20T00:49:50;6.10;99.90
22940;DHT22;11636;52.086;5.090;2023-12-20T00:52:24;6.00;99.90
22940;DHT22;11636;52.086;5.090;2023-12-20T00:54:52;5.90;99.90
22940;DHT22;11636;52.086;5.090;2023-12-20T00:57:25;5.90;99.90
22940;DHT22;11636;52.086;5.090;2023-12-20T00:59:52;6.00;99.90
22940;DHT22;11636;52.086;5.090;2023-12-20T01:02:25;6.00;99.90
22940;DHT22;11636;52.086;5.090;2023-12-20T01:04:52;6.00;99.90
22940;DHT22;11636;52.086;5.090;2023-12-20T01:07:25;6.00;99.90
22940;DHT22;11636;52.086;5.090;2023-12-20T01:09:59;6.00;99.90
22940;DHT22;11636;52.086;5.090;2023-12-20T01:12:32;6.00;99.90
22940;DHT22;11636;52.086;5.090;2023-12-20T01:14:59;6.10;99.90
22940;DHT22;11636;52.086;5.090;2023-12-20T01:17:26;6.00;99.90
22940;DHT22;11636;52.086;5.090;2023-12-20T01:19:59;6.10;99.90
22940;DHT22;11636;52.086;5.090;2023-12-20T01:22:26;6.20;99.90
22940;DHT22;11636;52.086;5.090;2023-12-20T01:24:59;6.20;99.90
22940;DHT22;11636;52.086;5.090;2023-12-20T01:27:26;6.20;99.90
22940;DHT22;11636;52.086;5.090;2023-12-20T01:29:59;6.20;99.90
22940;DHT22;11636;52.086;5.090;2023-12-20T01:32:32;6.20;99.90
22940;DHT22;11636;52.086;5.090;2023-12-20T01:34:59;6.20;99.90
22940;DHT22;11636;52.086;5.090;2023-12-20T01:37:33;6.10;99.90
22940;DHT22;11636;52.086;5.090;2023-12-20T01:40:06;6.20;99.90
22940;DHT22;11636;52.086;5.090;2023-12-20T01:42:35;6.30;99.90
22940;DHT22;11636;52.086;5.090;2023-12-20T01:45:09;6.30;99.90
22940;DHT22;11636;52.086;5.090;2023-12-20T01:47:42;6.30;99.90
22940;DHT22;11636;52.086;5.090;2023-12-20T01:50:15;6.30;99.90
22940;DHT22;11636;52.086;5.090;2023-12-20T01:52:50;6.30;99.90
22940;DHT22;11636;52.086;5.090;2023-12-20T01:55:27;6.30;99.90
22940;DHT22;11636;52.086;5.090;2023-12-20T01:58:03;6.30;99.90
22940;DHT22;11636;52.086;5.090;2023-12-20T02:00:37;6.30;99.90
22940;DHT22;11636;52.086;5.090;2023-12-20T02:03:04;6.30;99.90
22940;DHT22;11636;52.086;5.090;2023-12-20T02:05:44;6.30;99.90
22940;DHT22;11636;52.086;5.090;2023-12-20T02:08:19;6.30;99.90
22940;DHT22;11636;52.086;5.090;2023-12-20T02:10:52;6.30;99.90
22940;DHT22;11636;52.086;5.090;2023-12-20T02:13:25;6.40;99.90
22940;DHT22;11636;52.086;5.090;2023-12-20T02:15:54;6.40;99.90
22940;DHT22;11636;52.086;5.090;2023-12-20T02:18:28;6.40;99.90
22940;DHT22;11636;52.086;5.090;2023-12-20T02:20:55;6.40;99.90
22940;DHT22;11636;52.086;5.090;2023-12-20T02:23:23;6.40;99.90
22940;DHT22;11636;52.086;5.090;2023-12-20T02:25:56;6.50;99.90
22940;DHT22;11636;52.086;5.090;2023-12-20T02:28:23;6.60;99.90
22940;DHT22;11636;52.086;5.090;2023-12-20T02:30:56;6.50;99.90
22940;DHT22;11636;52.086;5.090;2023-12-20T02:33:23;6.50;99.90
22940;DHT22;11636;52.086;5.090;2023-12-20T02:35:56;6.60;99.90
22940;DHT22;11636;52.086;5.090;2023-12-20T02:38:29;6.60;99.90
22940;DHT22;11636;52.086;5.090;2023-12-20T02:40:56;6.60;99.90
22940;DHT22;11636;52.086;5.090;2023-12-20T02:43:29;6.70;99.90
22940;DHT22;11636;52.086;5.090;2023-12-20T02:46:02;6.70;99.90
22940;DHT22;11636;52.086;5.090;2023-12-20T02:48:36;6.70;99.90
22940;DHT22;11636;52.086;5.090;2023-12-20T02:51:03;6.80;99.90
22940;DHT22;11636;52.086;5.090;2023-12-20T02:53:36;6.90;99.90
22940;DHT22;11636;52.086;5.090;2023-12-20T02:56:09;6.90;99.90
22940;DHT22;11636;52.086;5.090;2023-12-20T02:58:43;7.00;99.90
22940;DHT22;11636;52.086;5.090;2023-12-20T03:01:10;7.00;99.90
22940;DHT22;11636;52.086;5.090;2023-12-20T03:03:43;7.00;99.90
22940;DHT22;11636;52.086;5.090;2023-12-20T03:06:10;7.10;99.90
22940;DHT22;11636;52.086;5.090;2023-12-20T03:08:44;7.10;99.90
22940;DHT22;11636;52.086;5.090;2023-12-20T03:11:11;7.10;99.90
22940;DHT22;11636;52.086;5.090;2023-12-20T03:13:44;7.10;99.90
22940;DHT22;11636;52.086;5.090;2023-12-20T03:16:12;7.10;99.90
22940;DHT22;11636;52.086;5.090;2023-12-20T03:18:45;7.10;99.90
22940;DHT22;11636;52.086;5.090;2023-12-20T03:21:12;7.00;99.90
22940;DHT22;11636;52.086;5.090;2023-12-20T03:23:45;7.00;99.90
22940;DHT22;11636;52.086;5.090;2023-12-20T03:26:12;7.00;99.90
22940;DHT22;11636;52.086;5.090;2023-12-20T03:28:46;7.10;99.90
22940;DHT22;11636;52.086;5.090;2023-12-20T03:31:15;7.10;99.90
22940;DHT22;11636;52.086;5.090;2023-12-20T03:33:49;7.10;99.90
22940;DHT22;11636;52.086;5.090;2023-12-20T03:36:17;7.10;99.90
22940;DHT22;11636;52.086;5.090;2023-12-20T03:38:50;7.10;99.90
22940;DHT22;11636;52.086;5.090;2023-12-20T03:41:17;7.10;99.90
22940;DHT22;11636;52.086;5.090;2023-12-20T03:43:44;7.10;99.90
22940;DHT22;11636;52.086;5.090;2023-12-20T03:46:17;7.10;99.90
22940;DHT22;11636;52.086;5.090;2023-12-20T03:48:50;7.20;99.90
22940;DHT22;11636;52.086;5.090;2023-12-20T03:51:17;7.10;99.90
22940;DHT22;11636;52.086;5.090;2023-12-20T03:53:50;7.10;99.90
22940;DHT22;11636;52.086;5.090;2023-12-20T03:56:17;7.10;99.90
22940;DHT22;11636;52.086;5.090;2023-12-20T03:58:50;7.10;99.90
22940;DHT22;11636;52.086;5.090;2023-12-20T04:01:17;7.20;99.90
22940;DHT22;11636;52.086;5.090;2023-12-20T04:03:44;7.20;99.90
22940;DHT22;11636;52.086;5.090;2023-12-20T04:06:18;7.20;99.90
22940;DHT22;11636;52.086;5.090;2023-12-20T04:08:52;7.20;99.90
22940;DHT22;11636;52.086;5.090;2023-12-20T04:11:25;7.20;99.90
22940;DHT22;11636;52.086;5.090;2023-12-20T04:13:52;7.20;99.90
22940;DHT22;11636;52.086;5.090;2023-12-20T04:16:26;7.30;99.90
22940;DHT22;11636;52.086;5.090;2023-12-20T04:18:52;7.30;99.90
22940;DHT22;11636;52.086;5.090;2023-12-20T04:21:26;7.30;99.90
22940;DHT22;11636;52.086;5.090;2023-12-20T04:23:53;7.40;99.90
22940;DHT22;11636;52.086;5.090;2023-12-20T04:26:25;7.40;99.90
22940;DHT22;11636;52.086;5.090;2023-12-20T04:28:59;7.40;99.90
22940;DHT22;11636;52.086;5.090;2023-12-20T04:31:32;7.40;99.90
22940;DHT22;11636;52.086;5.090;2023-12-20T04:33:59;7.40;99.90
22940;DHT22;11636;52.086;5.090;2023-12-20T04:36:33;7.40;99.90
22940;DHT22;11636;52.086;5.090;2023-12-20T04:39:07;7.40;99.90
22940;DHT22;11636;52.086;5.090;2023-12-20T04:41:34;7.40;99.90
22940;DHT22;11636;52.086;5.090;2023-12-20T04:44:07;7.40;99.90
22940;DHT22;11636;52.086;5.090;2023-12-20T04:46:41;7.40;99.90
22940;DHT22;11636;52.086;5.090;2023-12-20T04:49:13;7.30;99.90
22940;DHT22;11636;52.086;5.090;2023-12-20T04:51:47;7.30;99.90
22940;DHT22;11636;52.086;5.090;2023-12-20T04:54:14;7.30;99.90
22940;DHT22;11636;52.086;5.090;2023-12-20T04:56:47;7.30;99.90
22940;DHT22;11636;52.086;5.090;2023-12-20T04:59:21;7.30;99.90
22940;DHT22;11636;52.086;5.090;2023-12-20T05:01:54;7.30;99.90
22940;DHT22;11636;52.086;5.090;2023-12-20T05:04:21;7.30;99.90
22940;DHT22;11636;52.086;5.090;2023-12-20T05:06:48;7.30;99.90
22940;DHT22;11636;52.086;5.090;2023-12-20T05:09:23;7.30;99.90
22940;DHT22;11636;52.086;5.090;2023-12-20T05:11:55;7.40;99.90
22940;DHT22;11636;52.086;5.090;2023-12-20T05:14:29;7.30;99.90
22940;DHT22;11636;52.086;5.090;2023-12-20T05:17:01;7.30;99.90
22940;DHT22;11636;52.086;5.090;2023-12-20T05:19:36;7.30;99.90
22940;DHT22;11636;52.086;5.090;2023-12-20T05:22:09;7.30;99.90
22940;DHT22;11636;52.086;5.090;2023-12-20T05:24:36;7.30;99.90
22940;DHT22;11636;52.086;5.090;2023-12-20T05:27:09;7.30;99.90
22940;DHT22;11636;52.086;5.090;2023-12-20T05:29:42;7.30;99.90
22940;DHT22;11636;52.086;5.090;2023-12-20T05:32:14;7.30;99.90
22940;DHT22;11636;52.086;5.090;2023-12-20T05:34:48;7.30;99.90
22940;DHT22;11636;52.086;5.090;2023-12-20T05:37:14;7.30;99.90
22940;DHT22;11636;52.086;5.090;2023-12-20T05:39:48;7.30;99.90
22940;DHT22;11636;52.086;5.090;2023-12-20T05:42:14;7.30;99.90
22940;DHT22;11636;52.086;5.090;2023-12-20T05:44:48;7.40;99.90
22940;DHT22;11636;52.086;5.090;2023-12-20T05:47:24;7.40;99.90
22940;DHT22;11636;52.086;5.090;2023-12-20T05:49:58;7.40;99.90
22940;DHT22;11636;52.086;5.090;2023-12-20T05:52:25;7.50;99.90
22940;DHT22;11636;52.086;5.090;2023-12-20T05:54:59;7.50;99.90
22940;DHT22;11636;52.086;5.090;2023-12-20T05:57:28;7.50;99.90
22940;DHT22;11636;52.086;5.090;2023-12-20T06:00:01;7.50;99.90
22940;DHT22;11636;52.086;5.090;2023-12-20T06:02:27;7.50;99.90
22940;DHT22;11636;52.086;5.090;2023-12-20T06:05:01;7.50;99.90
22940;DHT22;11636;52.086;5.090;2023-12-20T06:07:35;7.50;99.90
22940;DHT22;11636;52.086;5.090;2023-12-20T06:10:02;7.50;99.90
22940;DHT22;11636;52.086;5.090;2023-12-20T06:12:36;7.50;99.90
22940;DHT22;11636;52.086;5.090;2023-12-20T06:15:10;7.60;99.90
22940;DHT22;11636;52.086;5.090;2023-12-20T06:17:44;7.50;99.90
22940;DHT22;11636;52.086;5.090;2023-12-20T06:20:11;7.50;99.90
22940;DHT22;11636;52.086;5.090;2023-12-20T06:22:45;7.50;99.90
22940;DHT22;11636;52.086;5.090;2023-12-20T06:25:12;7.50;99.90
22940;DHT22;11636;52.086;5.090;2023-12-20T06:27:45;7.50;99.90
22940;DHT22;11636;52.086;5.090;2023-12-20T06:30:12;7.50;99.90
22940;DHT22;11636;52.086;5.090;2023-12-20T06:32:46;7.60;99.90
22940;DHT22;11636;52.086;5.090;2023-12-20T06:35:13;7.60;99.90
22940;DHT22;11636;52.086;5.090;2023-12-20T06:37:47;7.60;99.90
22940;DHT22;11636;52.086;5.090;2023-12-20T06:40:14;7.60;99.90
22940;DHT22;11636;52.086;5.090;2023-12-20T06:42:47;7.60;99.90
22940;DHT22;11636;52.086;5.090;2023-12-20T06:45:34;7.60;99.90
22940;DHT22;11636;52.086;5.090;2023-12-20T06:51:16;7.60;99.90
22940;DHT22;11636;52.086;5.090;2023-12-20T06:53:43;7.60;99.90
22940;DHT22;11636;52.086;5.090;2023-12-20T06:56:17;7.70;99.90
22940;DHT22;11636;52.086;5.090;2023-12-20T06:58:50;7.60;99.90
22940;DHT22;11636;52.086;5.090;2023-12-20T07:01:17;7.70;99.90
22940;DHT22;11636;52.086;5.090;2023-12-20T07:03:50;7.70;99.90
22940;DHT22;11636;52.086;5.090;2023-12-20T07:06:17;7.70;99.90
22940;DHT22;11636;52.086;5.090;2023-12-20T07:08:52;7.70;99.90
22940;DHT22;11636;52.086;5.090;2023-12-20T07:11:19;7.70;99.90
22940;DHT22;11636;52.086;5.090;2023-12-20T07:13:52;7.70;99.90
22940;DHT22;11636;52.086;5.090;2023-12-20T07:16:19;7.80;99.90
22940;DHT22;11636;52.086;5.090;2023-12-20T07:18:52;7.80;99.90
22940;DHT22;11636;52.086;5.090;2023-12-20T07:21:19;7.80;99.90
22940;DHT22;11636;52.086;5.090;2023-12-20T07:23:53;7.80;99.90
22940;DHT22;11636;52.086;5.090;2023-12-20T07:26:20;7.90;99.90
22940;DHT22;11636;52.086;5.090;2023-12-20T07:28:47;7.90;99.90
22940;DHT22;11636;52.086;5.090;2023-12-20T07:31:21;7.90;99.90
22940;DHT22;11636;52.086;5.090;2023-12-20T07:33:48;7.80;99.90
22940;DHT22;11636;52.086;5.090;2023-12-20T07:36:22;7.80;99.90
22940;DHT22;11636;52.086;5.090;2023-12-20T07:38:49;7.80;99.90
22940;DHT22;11636;52.086;5.090;2023-12-20T07:41:16;7.90;99.90
22940;DHT22;11636;52.086;5.090;2023-12-20T07:43:49;7.90;99.90
22940;DHT22;11636;52.086;5.090;2023-12-20T07:46:22;7.90;99.90
22940;DHT22;11636;52.086;5.090;2023-12-20T07:48:52;7.90;99.90
22940;DHT22;11636;52.086;5.090;2023-12-20T07:51:25;7.90;99.90
22940;DHT22;11636;52.086;5.090;2023-12-20T07:53:58;7.90;99.90
22940;DHT22;11636;52.086;5.090;2023-12-20T07:56:25;7.90;99.90
22940;DHT22;11636;52.086;5.090;2023-12-20T07:58:51;7.90;99.90
22940;DHT22;11636;52.086;5.090;2023-12-20T08:01:26;7.90;99.90
22940;DHT22;11636;52.086;5.090;2023-12-20T08:03:53;7.90;99.90
22940;DHT22;11636;52.086;5.090;2023-12-20T08:06:27;8.00;99.90
22940;DHT22;11636;52.086;5.090;2023-12-20T08:08:54;7.90;99.90
22940;DHT22;11636;52.086;5.090;2023-12-20T08:11:32;8.00;99.90
22940;DHT22;11636;52.086;5.090;2023-12-20T08:13:59;8.00;99.90
22940;DHT22;11636;52.086;5.090;2023-12-20T08:16:32;8.00;99.90
22940;DHT22;11636;52.086;5.090;2023-12-20T08:18:59;7.90;99.90
22940;DHT22;11636;52.086;5.090;2023-12-20T08:21:32;8.00;99.90
22940;DHT22;11636;52.086;5.090;2023-12-20T08:24:05;8.00;99.90
22940;DHT22;11636;52.086;5.090;2023-12-20T08:26:39;8.00;99.90
22940;DHT22;11636;52.086;5.090;2023-12-20T08:29:15;8.00;99.90
22940;DHT22;11636;52.086;5.090;2023-12-20T08:31:42;8.00;99.90
22940;DHT22;11636;52.086;5.090;2023-12-20T08:34:15;8.00;99.90
22940;DHT22;11636;52.086;5.090;2023-12-20T08:36:48;8.00;99.90
22940;DHT22;11636;52.086;5.090;2023-12-20T08:39:21;8.00;99.90
22940;DHT22;11636;52.086;5.090;2023-12-20T08:41:48;8.10;99.90
22940;DHT22;11636;52.086;5.090;2023-12-20T08:44:15;8.10;99.90
22940;DHT22;11636;52.086;5.090;2023-12-20T08:46:48;8.10;99.90
22940;DHT22;11636;52.086;5.090;2023-12-20T08:49:15;8.10;99.90
22940;DHT22;11636;52.086;5.090;2023-12-20T08:51:49;8.20;99.90
22940;DHT22;11636;52.086;5.090;2023-12-20T08:54:23;8.20;99.90
22940;DHT22;11636;52.086;5.090;2023-12-20T08:56:51;8.30;99.90
22940;DHT22;11636;52.086;5.090;2023-12-20T08:59:17;8.30;99.90
22940;DHT22;11636;52.086;5.090;2023-12-20T09:01:52;8.30;99.90
22940;DHT22;11636;52.086;5.090;2023-12-20T09:04:27;8.30;99.90
22940;DHT22;11636;52.086;5.090;2023-12-20T09:06:54;8.30;99.90
22940;DHT22;11636;52.086;5.090;2023-12-20T09:09:21;8.40;99.90
22940;DHT22;11636;52.086;5.090;2023-12-20T09:11:54;8.40;99.90
22940;DHT22;11636;52.086;5.090;2023-12-20T09:14:27;8.40;99.90
22940;DHT22;11636;52.086;5.090;2023-12-20T09:16:54;8.40;99.90
22940;DHT22;11636;52.086;5.090;2023-12-20T09:19:29;8.40;99.90
22940;DHT22;11636;52.086;5.090;2023-12-20T09:21:56;8.50;99.90
22940;DHT22;11636;52.086;5.090;2023-12-20T09:24:30;8.50;99.90
22940;DHT22;11636;52.086;5.090;2023-12-20T09:26:57;8.50;99.90
22940;DHT22;11636;52.086;5.090;2023-12-20T09:29:24;8.60;99.90
22940;DHT22;11636;52.086;5.090;2023-12-20T09:31:57;8.60;99.90
22940;DHT22;11636;52.086;5.090;2023-12-20T09:34:24;8.60;99.90
22940;DHT22;11636;52.086;5.090;2023-12-20T09:36:58;8.60;99.90
22940;DHT22;11636;52.086;5.090;2023-12-20T09:39:27;8.60;99.90
22940;DHT22;11636;52.086;5.090;2023-12-20T09:42:03;8.70;99.90
22940;DHT22;11636;52.086;5.090;2023-12-20T09:44:31;8.70;99.90
22940;DHT22;11636;52.086;5.090;2023-12-20T09:46:58;8.70;99.90
22940;DHT22;11636;52.086;5.090;2023-12-20T09:49:33;8.70;99.90
22940;DHT22;11636;52.086;5.090;2023-12-20T09:52:01;8.70;99.90
22940;DHT22;11636;52.086;5.090;2023-12-20T09:54:34;8.70;99.90
22940;DHT22;11636;52.086;5.090;2023-12-20T09:57:01;8.70;99.90
22940;DHT22;11636;52.086;5.090;2023-12-20T09:59:34;8.70;99.90
22940;DHT22;11636;52.086;5.090;2023-12-20T10:02:01;8.80;99.90
22940;DHT22;11636;52.086;5.090;2023-12-20T10:04:37;8.80;99.90
22940;DHT22;11636;52.086;5.090;2023-12-20T10:07:05;8.80;99.90
22940;DHT22;11636;52.086;5.090;2023-12-20T10:09:34;8.80;99.90
22940;DHT22;11636;52.086;5.090;2023-12-20T10:12:07;8.80;99.90
22940;DHT22;11636;52.086;5.090;2023-12-20T10:14:34;8.90;99.90
22940;DHT22;11636;52.086;5.090;2023-12-20T10:17:04;8.90;99.90
22940;DHT22;11636;52.086;5.090;2023-12-20T10:19:37;8.90;99.90
22940;DHT22;11636;52.086;5.090;2023-12-20T10:22:05;9.00;99.90
22940;DHT22;11636;52.086;5.090;2023-12-20T10:24:32;9.00;99.90
22940;DHT22;11636;52.086;5.090;2023-12-20T10:27:07;9.00;99.90
22940;DHT22;11636;52.086;5.090;2023-12-20T10:29:37;9.00;99.90
22940;DHT22;11636;52.086;5.090;2023-12-20T10:32:27;9.00;99.90
22940;DHT22;11636;52.086;5.090;2023-12-20T10:34:55;9.00;99.90
22940;DHT22;11636;52.086;5.090;2023-12-20T10:37:29;9.00;99.90
22940;DHT22;11636;52.086;5.090;2023-12-20T10:39:57;9.00;99.90
22940;DHT22;11636;52.086;5.090;2023-12-20T10:42:33;9.10;99.90
22940;DHT22;11636;52.086;5.090;2023-12-20T10:45:03;9.10;99.90
22940;DHT22;11636;52.086;5.090;2023-12-20T10:47:30;9.10;99.90
22940;DHT22;11636;52.086;5.090;2023-12-20T10:50:06;9.10;99.90
22940;DHT22;11636;52.086;5.090;2023-12-20T10:52:41;9.20;99.90
22940;DHT22;11636;52.086;5.090;2023-12-20T10:55:08;9.10;99.90
22940;DHT22;11636;52.086;5.090;2023-12-20T10:57:43;9.20;99.90
22940;DHT22;11636;52.086;5.090;2023-12-20T11:00:19;9.20;99.90
22940;DHT22;11636;52.086;5.090;2023-12-20T11:02:49;9.10;99.90
22940;DHT22;11636;52.086;5.090;2023-12-20T11:11:21;9.30;99.90
22940;DHT22;11636;52.086;5.090;2023-12-20T11:14:00;9.30;99.90
22940;DHT22;11636;52.086;5.090;2023-12-20T11:16:38;9.40;99.90
22940;DHT22;11636;52.086;5.090;2023-12-20T11:19:20;9.40;99.90
22940;DHT22;11636;52.086;5.090;2023-12-20T11:21:53;9.50;99.90
22940;DHT22;11636;52.086;5.090;2023-12-20T11:24:22;9.50;99.90
22940;DHT22;11636;52.086;5.090;2023-12-20T11:26:57;9.50;99.90
22940;DHT22;11636;52.086;5.090;2023-12-20T11:29:36;9.50;99.90
22940;DHT22;11636;52.086;5.090;2023-12-20T11:35:17;9.50;99.90
22940;DHT22;11636;52.086;5.090;2023-12-20T11:37:46;9.50;99.90
22940;DHT22;11636;52.086;5.090;2023-12-20T11:40:23;9.50;99.90
22940;DHT22;11636;52.086;5.090;2023-12-20T11:42:52;9.50;99.90
22940;DHT22;11636;52.086;5.090;2023-12-20T11:45:27;9.50;99.90
22940;DHT22;11636;52.086;5.090;2023-12-20T11:47:56;9.60;99.90
22940;DHT22;11636;52.086;5.090;2023-12-20T11:50:30;9.50;99.90
22940;DHT22;11636;52.086;5.090;2023-12-20T11:53:05;9.60;99.90
22940;DHT22;11636;52.086;5.090;2023-12-20T11:55:38;9.60;99.90
22940;DHT22;11636;52.086;5.090;2023-12-20T11:58:11;9.60;99.90
22940;DHT22;11636;52.086;5.090;2023-12-20T12:00:38;9.60;99.90
22940;DHT22;11636;52.086;5.090;2023-12-20T12:03:15;9.50;99.90
22940;DHT22;11636;52.086;5.090;2023-12-20T12:05:42;9.50;99.90
22940;DHT22;11636;52.086;5.090;2023-12-20T12:08:09;9.50;99.90
22940;DHT22;11636;52.086;5.090;2023-12-20T12:10:45;9.50;99.90
22940;DHT22;11636;52.086;5.090;2023-12-20T12:13:12;9.50;99.90
22940;DHT22;11636;52.086;5.090;2023-12-20T12:15:42;9.50;99.90
22940;DHT22;11636;52.086;5.090;2023-12-20T12:18:17;9.60;99.90
22940;DHT22;11636;52.086;5.090;2023-12-20T12:20:44;9.60;99.90
22940;DHT22;11636;52.086;5.090;2023-12-20T12:23:23;9.60;99.90
22940;DHT22;11636;52.086;5.090;2023-12-20T12:25:51;9.60;99.90
22940;DHT22;11636;52.086;5.090;2023-12-20T12:28:27;9.60;99.90
22940;DHT22;11636;52.086;5.090;2023-12-20T12:31:06;9.60;99.90
22940;DHT22;11636;52.086;5.090;2023-12-20T12:33:34;9.60;99.90
22940;DHT22;11636;52.086;5.090;2023-12-20T12:36:07;9.70;99.90
22940;DHT22;11636;52.086;5.090;2023-12-20T12:38:35;9.70;99.90
22940;DHT22;11636;52.086;5.090;2023-12-20T12:41:02;9.70;99.90
22940;DHT22;11636;52.086;5.090;2023-12-20T12:43:35;9.70;99.90
22940;DHT22;11636;52.086;5.090;2023-12-20T12:46:08;9.70;99.90
22940;DHT22;11636;52.086;5.090;2023-12-20T12:48:35;9.60;99.90
22940;DHT22;11636;52.086;5.090;2023-12-20T12:51:03;9.60;99.90
22940;DHT22;11636;52.086;5.090;2023-12-20T12:53:36;9.60;99.90
22940;DHT22;11636;52.086;5.090;2023-12-20T12:56:03;9.60;99.90
22940;DHT22;11636;52.086;5.090;2023-12-20T12:58:31;9.60;99.90
22940;DHT22;11636;52.086;5.090;2023-12-20T13:01:04;9.50;99.90
22940;DHT22;11636;52.086;5.090;2023-12-20T13:03:31;9.50;99.90
22940;DHT22;11636;52.086;5.090;2023-12-20T13:06:06;9.50;99.90
22940;DHT22;11636;52.086;5.090;2023-12-20T13:08:48;9.50;99.90
22940;DHT22;11636;52.086;5.090;2023-12-20T13:11:15;9.50;99.90
22940;DHT22;11636;52.086;5.090;2023-12-20T13:13:48;9.50;99.90
22940;DHT22;11636;52.086;5.090;2023-12-20T13:16:18;9.50;99.90
22940;DHT22;11636;52.086;5.090;2023-12-20T13:18:52;9.50;99.90
22940;DHT22;11636;52.086;5.090;2023-12-20T13:21:19;9.50;99.90
22940;DHT22;11636;52.086;5.090;2023-12-20T13:23:46;9.50;99.90
22940;DHT22;11636;52.086;5.090;2023-12-20T13:26:19;9.50;99.90
22940;DHT22;11636;52.086;5.090;2023-12-20T13:28:46;9.50;99.90
22940;DHT22;11636;52.086;5.090;2023-12-20T13:31:13;9.50;99.90
22940;DHT22;11636;52.086;5.090;2023-12-20T13:33:49;9.50;99.90
22940;DHT22;11636;52.086;5.090;2023-12-20T13:36:18;9.40;99.90
22940;DHT22;11636;52.086;5.090;2023-12-20T13:38:46;9.50;99.90
22940;DHT22;11636;52.086;5.090;2023-12-20T13:41:20;9.50;99.90
22940;DHT22;11636;52.086;5.090;2023-12-20T13:43:46;9.40;99.90
22940;DHT22;11636;52.086;5.090;2023-12-20T13:46:13;9.40;99.90
22940;DHT22;11636;52.086;5.090;2023-12-20T13:48:47;9.50;99.90
22940;DHT22;11636;52.086;5.090;2023-12-20T13:51:15;9.40;99.90
22940;DHT22;11636;52.086;5.090;2023-12-20T13:53:49;9.40;99.90
22940;DHT22;11636;52.086;5.090;2023-12-20T13:56:16;9.40;99.90
22940;DHT22;11636;52.086;5.090;2023-12-20T13:58:50;9.50;99.90
22940;DHT22;11636;52.086;5.090;2023-12-20T14:01:17;9.50;99.90
22940;DHT22;11636;52.086;5.090;2023-12-20T14:03:51;9.50;99.90
22940;DHT22;11636;52.086;5.090;2023-12-20T14:06:24;9.50;99.90
22940;DHT22;11636;52.086;5.090;2023-12-20T14:08:57;9.60;99.90
22940;DHT22;11636;52.086;5.090;2023-12-20T14:11:26;9.60;99.90
22940;DHT22;11636;52.086;5.090;2023-12-20T14:13:53;9.60;99.90
22940;DHT22;11636;52.086;5.090;2023-12-20T14:16:30;9.50;99.90
22940;DHT22;11636;52.086;5.090;2023-12-20T14:18:57;9.50;99.90
22940;DHT22;11636;52.086;5.090;2023-12-20T14:21:31;9.50;99.90
22940;DHT22;11636;52.086;5.090;2023-12-20T14:23:58;9.50;99.90
22940;DHT22;11636;52.086;5.090;2023-12-20T14:26:32;9.40;99.90
22940;DHT22;11636;52.086;5.090;2023-12-20T14:28:59;9.40;99.90
22940;DHT22;11636;52.086;5.090;2023-12-20T14:31:26;9.40;99.90
22940;DHT22;11636;52.086;5.090;2023-12-20T14:34:02;9.30;99.90
22940;DHT22;11636;52.086;5.090;2023-12-20T14:36:31;9.30;99.90
22940;DHT22;11636;52.086;5.090;2023-12-20T14:39:03;9.30;99.90
22940;DHT22;11636;52.086;5.090;2023-12-20T14:41:31;9.30;99.90
22940;DHT22;11636;52.086;5.090;2023-12-20T14:44:04;9.30;99.90
22940;DHT22;11636;52.086;5.090;2023-12-20T14:46:31;9.30;99.90
22940;DHT22;11636;52.086;5.090;2023-12-20T14:49:07;9.20;99.90
22940;DHT22;11636;52.086;5.090;2023-12-20T14:51:35;9.30;99.90
22940;DHT22;11636;52.086;5.090;2023-12-20T14:54:04;9.20;99.90
22940;DHT22;11636;52.086;5.090;2023-12-20T14:56:38;9.20;99.90
22940;DHT22;11636;52.086;5.090;2023-12-20T14:59:05;9.20;99.90
22940;DHT22;11636;52.086;5.090;2023-12-20T15:01:39;9.20;99.90
22940;DHT22;11636;52.086;5.090;2023-12-20T15:04:15;9.20;99.90
22940;DHT22;11636;52.086;5.090;2023-12-20T15:06:42;9.20;99.90
22940;DHT22;11636;52.086;5.090;2023-12-20T15:09:13;9.20;99.90
22940;DHT22;11636;52.086;5.090;2023-12-20T15:11:45;9.10;99.90
22940;DHT22;11636;52.086;5.090;2023-12-20T15:14:12;9.10;99.90
22940;DHT22;11636;52.086;5.090;2023-12-20T15:16:51;9.10;99.90
22940;DHT22;11636;52.086;5.090;2023-12-20T15:19:18;9.10;99.90
22940;DHT22;11636;52.086;5.090;2023-12-20T15:21:45;9.10;99.90
22940;DHT22;11636;52.086;5.090;2023-12-20T15:24:19;9.00;99.90
22940;DHT22;11636;52.086;5.090;2023-12-20T15:26:59;9.00;99.90
22940;DHT22;11636;52.086;5.090;2023-12-20T15:29:32;9.00;99.90
22940;DHT22;11636;52.086;5.090;2023-12-20T15:31:59;9.00;99.90
22940;DHT22;11636;52.086;5.090;2023-12-20T15:34:33;9.00;99.90
22940;DHT22;11636;52.086;5.090;2023-12-20T15:37:06;9.00;99.90
22940;DHT22;11636;52.086;5.090;2023-12-20T15:39:33;9.00;99.90
22940;DHT22;11636;52.086;5.090;2023-12-20T15:42:07;9.00;99.90
22940;DHT22;11636;52.086;5.090;2023-12-20T15:44:33;8.90;99.90
22940;DHT22;11636;52.086;5.090;2023-12-20T15:47:07;8.90;99.90
22940;DHT22;11636;52.086;5.090;2023-12-20T15:49:40;8.90;99.90
22940;DHT22;11636;52.086;5.090;2023-12-20T15:52:14;8.80;99.90
22940;DHT22;11636;52.086;5.090;2023-12-20T15:54:48;8.80;99.90
22940;DHT22;11636;52.086;5.090;2023-12-20T15:57:22;8.70;99.90
22940;DHT22;11636;52.086;5.090;2023-12-20T16:00:15;8.70;99.90
22940;DHT22;11636;52.086;5.090;2023-12-20T16:02:48;8.60;99.90
22940;DHT22;11636;52.086;5.090;2023-12-20T16:05:23;8.60;99.90
22940;DHT22;11636;52.086;5.090;2023-12-20T16:07:56;8.60;99.90
22940;DHT22;11636;52.086;5.090;2023-12-20T16:10:23;8.60;99.90
22940;DHT22;11636;52.086;5.090;2023-12-20T16:12:57;8.60;99.90
22940;DHT22;11636;52.086;5.090;2023-12-20T16:15:24;8.60;99.90
22940;DHT22;11636;52.086;5.090;2023-12-20T16:17:58;8.60;99.90
22940;DHT22;11636;52.086;5.090;2023-12-20T16:20:25;8.60;99.90
22940;DHT22;11636;52.086;5.090;2023-12-20T16:22:59;8.60;99.90